Time;durP1;ratioP1;P1;durP2;ratioP2;P2;SDS_P1;SDS_P2;PMS_P1;PMS_P2;Temp;Humidity;BMP_temperature;BMP_pressure;BME280_temperature;BME280_humidity;BME280_pressure;Samples;Min_cycle;Max_cycle;Signal;HPM_P1;HPM_P2
2022/12/28 00:01:18;;;;;;;11.40;8.50;;;5.20;99.90;;;;;;5054266;28;20790;-70
2022/12/28 00:03:44;;;;;;;10.93;7.23;;;5.20;99.90;;;;;;5054271;28;20480;-69
2022/12/28 00:06:10;;;;;;;6.83;4.60;;;5.20;99.90;;;;;;5054101;28;20416;-69
2022/12/28 00:08:36;;;;;;;6.50;4.53;;;5.20;99.90;;;;;;5054218;28;20171;-69
2022/12/28 00:11:07;;;;;;;7.30;4.00;;;5.30;99.90;;;;;;5053931;28;20480;-70
2022/12/28 00:13:34;;;;;;;4.10;3.50;;;5.40;99.90;;;;;;5053695;28;20198;-70
2022/12/28 00:16:08;;;;;;;3.80;3.40;;;5.40;99.90;;;;;;5053753;28;20459;-70
2022/12/28 00:18:34;;;;;;;5.40;3.40;;;5.60;99.90;;;;;;5053730;28;20407;-70
2022/12/28 00:21:01;;;;;;;4.30;3.90;;;5.60;99.90;;;;;;5053760;28;20401;-70
2022/12/28 00:23:27;;;;;;;4.70;3.87;;;5.60;99.90;;;;;;5053736;28;20472;-70
2022/12/28 00:25:53;;;;;;;4.87;3.60;;;5.60;99.90;;;;;;5036070;28;20891;-70
2022/12/28 00:28:19;;;;;;;4.87;4.33;;;5.60;99.90;;;;;;5053561;28;20498;-69
2022/12/28 00:30:45;;;;;;;4.07;3.67;;;5.60;99.90;;;;;;5054247;28;20170;-69
2022/12/28 00:33:11;;;;;;;4.40;3.30;;;5.60;99.90;;;;;;5053973;28;20421;-68
2022/12/28 00:35:36;;;;;;;4.70;3.53;;;5.60;99.90;;;;;;5054282;28;20466;-69
2022/12/28 00:38:02;;;;;;;7.57;3.80;;;5.60;99.90;;;;;;5035738;28;20232;-71
2022/12/28 00:40:28;;;;;;;3.60;3.30;;;5.60;99.90;;;;;;5054133;28;20163;-70
2022/12/28 00:42:53;;;;;;;4.73;4.20;;;5.60;99.90;;;;;;5053099;28;20194;-70
2022/12/28 00:45:19;;;;;;;5.73;4.43;;;5.70;99.90;;;;;;5053381;28;20190;-71
2022/12/28 00:47:44;;;;;;;4.00;3.60;;;5.70;99.90;;;;;;5053436;28;20202;-70
2022/12/28 00:50:10;;;;;;;3.70;3.30;;;5.70;99.90;;;;;;5053508;28;20166;-72
2022/12/28 00:52:36;;;;;;;4.07;3.67;;;5.60;99.90;;;;;;5056915;28;20202;-70
2022/12/28 00:55:01;;;;;;;3.40;3.10;;;5.60;99.90;;;;;;5057491;28;20158;-70
2022/12/28 00:57:27;;;;;;;3.30;3.00;;;5.60;99.90;;;;;;5056989;28;20168;-69
2022/12/28 00:59:52;;;;;;;5.13;2.90;;;5.60;99.90;;;;;;5057214;28;20171;-70
2022/12/28 01:02:18;;;;;;;3.47;3.17;;;5.70;99.90;;;;;;5055926;28;20209;-70
2022/12/28 01:04:44;;;;;;;3.63;2.90;;;5.80;99.90;;;;;;5056964;28;20201;-70
2022/12/28 01:07:10;;;;;;;4.50;3.80;;;5.80;99.90;;;;;;5057449;28;20159;-70
2022/12/28 01:09:35;;;;;;;3.37;3.07;;;5.80;99.90;;;;;;5057174;28;20186;-70
2022/12/28 01:12:01;;;;;;;4.03;3.33;;;5.80;99.90;;;;;;5057521;28;20459;-70
2022/12/28 01:14:27;;;;;;;3.23;2.77;;;5.80;99.90;;;;;;5057128;28;20190;-70
2022/12/28 01:16:52;;;;;;;5.30;4.30;;;5.70;99.90;;;;;;5056827;28;20170;-70
2022/12/28 01:19:20;;;;;;;4.83;3.47;;;5.60;99.90;;;;;;5056349;28;20194;-70
2022/12/28 01:21:50;;;;;;;9.43;3.50;;;5.60;99.90;;;;;;5057111;28;20178;-70
2022/12/28 01:24:16;;;;;;;4.33;3.17;;;5.60;99.90;;;;;;5056854;28;20970;-69
2022/12/28 01:26:42;;;;;;;5.83;3.43;;;5.60;99.90;;;;;;5056797;28;20436;-69
2022/12/28 01:29:08;;;;;;;4.83;3.50;;;5.60;99.90;;;;;;5038697;28;20393;-68
2022/12/28 01:31:34;;;;;;;6.00;3.53;;;5.60;99.90;;;;;;5056743;28;20175;-70
2022/12/28 01:34:00;;;;;;;4.83;3.17;;;5.60;99.90;;;;;;5038134;28;20297;-70
2022/12/28 01:36:28;;;;;;;4.10;3.30;;;5.60;99.90;;;;;;5037919;28;20170;-71
2022/12/28 01:38:55;;;;;;;5.07;3.60;;;5.60;99.90;;;;;;5056119;28;20976;-70
2022/12/28 01:41:22;;;;;;;3.83;2.93;;;5.60;99.90;;;;;;5047489;28;20488;-70
2022/12/28 01:43:53;;;;;;;3.83;3.40;;;5.60;99.90;;;;;;5036536;28;21087;-69
2022/12/28 01:46:38;;;;;;;5.73;3.60;;;5.60;99.90;;;;;;5038298;28;20398;-70
2022/12/28 01:49:12;;;;;;;4.57;3.23;;;5.50;99.90;;;;;;5037038;28;20414;-70
2022/12/28 01:51:52;;;;;;;4.50;3.10;;;5.60;99.90;;;;;;5037884;28;20386;-70
2022/12/28 01:54:20;;;;;;;5.67;3.40;;;5.60;99.90;;;;;;5036207;28;20461;-70
2022/12/28 01:56:47;;;;;;;4.27;3.70;;;5.60;99.90;;;;;;5034845;28;20431;-70
2022/12/28 01:59:13;;;;;;;4.37;3.37;;;5.60;99.90;;;;;;5035824;28;20410;-70
2022/12/28 02:01:39;;;;;;;6.00;4.17;;;5.70;99.90;;;;;;5035579;28;20494;-71
2022/12/28 02:04:04;;;;;;;4.23;3.43;;;5.60;99.90;;;;;;5053120;28;20457;-70
2022/12/28 02:06:30;;;;;;;5.83;3.43;;;5.60;99.90;;;;;;5055937;28;20170;-70
2022/12/28 02:09:08;;;;;;;3.67;3.37;;;5.70;99.90;;;;;;5055864;28;20664;-70
2022/12/28 02:11:36;;;;;;;2.50;2.27;;;5.70;99.90;;;;;;5037600;28;20435;-70
2022/12/28 02:14:03;;;;;;;4.40;3.03;;;5.80;99.90;;;;;;5055081;28;20524;-70
2022/12/28 02:16:29;;;;;;;4.80;3.43;;;5.70;99.90;;;;;;5055560;28;20492;-69
2022/12/28 02:18:55;;;;;;;3.47;3.17;;;5.80;99.90;;;;;;5055115;28;20437;-70
2022/12/28 02:21:29;;;;;;;4.30;3.10;;;5.80;99.90;;;;;;5056323;28;20250;-69
2022/12/28 02:24:27;;;;;;;3.70;2.73;;;5.80;99.90;;;;;;5037469;28;20444;-70
2022/12/28 02:27:17;;;;;;;4.60;3.00;;;5.90;99.90;;;;;;5055358;28;20734;-70
2022/12/28 02:30:04;;;;;;;4.23;2.40;;;5.90;99.90;;;;;;5037454;28;20480;-70
2022/12/28 02:33:03;;;;;;;2.57;2.37;;;6.00;99.90;;;;;;5054910;28;20496;-70
2022/12/28 02:35:45;;;;;;;4.43;2.60;;;6.00;99.90;;;;;;5055674;28;20856;-70
2022/12/28 02:38:33;;;;;;;2.50;2.17;;;6.10;99.90;;;;;;5055403;28;20387;-68
2022/12/28 02:41:08;;;;;;;3.00;2.03;;;6.20;99.90;;;;;;5055071;28;20515;-70
2022/12/28 02:43:34;;;;;;;3.27;2.27;;;6.20;99.90;;;;;;5037014;28;20452;-70
2022/12/28 02:52:31;;;;;;;3.30;2.20;;;6.30;99.90;;;;;;5055121;28;20891;-70
2022/12/28 02:58:46;;;;;;;1.80;1.60;;;6.30;99.90;;;;;;5054912;28;20378;-70
2022/12/28 03:01:30;;;;;;;2.47;1.87;;;6.40;99.90;;;;;;5054955;28;20397;-70
2022/12/28 03:04:17;;;;;;;2.30;1.80;;;6.50;99.90;;;;;;5052532;28;20980;-70
2022/12/28 03:09:51;;;;;;;1.60;1.50;;;6.70;99.90;;;;;;5055929;28;20386;-70
2022/12/28 03:12:27;;;;;;;1.90;1.70;;;6.70;99.90;;;;;;5036556;28;20901;-70
2022/12/28 03:14:58;;;;;;;3.53;1.83;;;6.70;99.90;;;;;;5054123;28;20797;-68
2022/12/28 03:31:24;;;;;;;2.50;1.40;;;6.60;99.90;;;;;;5054897;28;20814;-69
2022/12/28 03:33:52;;;;;;;1.40;1.30;;;6.70;99.90;;;;;;5053564;28;20916;-69
2022/12/28 03:36:34;;;;;;;1.87;1.40;;;6.70;99.90;;;;;;5042581;28;20407;-70
2022/12/28 03:39:23;;;;;;;1.70;1.40;;;6.90;99.90;;;;;;5034562;28;20405;-69
2022/12/28 03:44:49;;;;;;;1.63;1.20;;;7.10;99.90;;;;;;5034240;28;20460;-69
2022/12/28 03:47:17;;;;;;;1.30;1.20;;;7.30;99.90;;;;;;5032336;28;20894;-70
2022/12/28 03:49:43;;;;;;;1.80;1.23;;;7.40;99.90;;;;;;5033792;28;20413;-69
2022/12/28 03:52:10;;;;;;;1.77;1.23;;;7.30;99.90;;;;;;5033904;28;20428;-69
2022/12/28 03:54:35;;;;;;;3.53;1.40;;;7.30;99.90;;;;;;5091122;22;20721;-71
2022/12/28 03:57:01;;;;;;;1.50;1.40;;;7.40;99.90;;;;;;5072490;28;20468;-71
2022/12/28 03:59:26;;;;;;;2.83;1.73;;;7.50;99.90;;;;;;5072207;28;20242;-71
2022/12/28 04:01:52;;;;;;;1.43;1.23;;;7.50;99.90;;;;;;5072337;28;20241;-72
2022/12/28 04:04:18;;;;;;;1.70;1.33;;;7.70;99.90;;;;;;5080856;28;20211;-71
2022/12/28 04:06:43;;;;;;;2.17;1.97;;;7.50;99.90;;;;;;5072438;28;20159;-71
2022/12/28 04:09:09;;;;;;;3.43;1.47;;;7.60;99.90;;;;;;5072792;28;20657;-71
2022/12/28 04:11:35;;;;;;;1.53;1.03;;;7.50;99.90;;;;;;5072273;28;20195;-71
2022/12/28 04:14:03;;;;;;;1.90;1.63;;;7.50;99.90;;;;;;5071931;28;20192;-71
2022/12/28 04:16:28;;;;;;;1.50;1.40;;;7.40;99.90;;;;;;5072188;28;20178;-71
2022/12/28 04:18:54;;;;;;;3.77;1.67;;;7.40;99.90;;;;;;5071710;28;20409;-71
2022/12/28 04:21:19;;;;;;;2.10;1.90;;;7.30;99.90;;;;;;5071794;28;20237;-71
2022/12/28 04:23:45;;;;;;;2.10;1.90;;;7.40;99.90;;;;;;5071810;28;20204;-70
2022/12/28 04:26:12;;;;;;;1.67;1.47;;;7.20;99.90;;;;;;5074688;28;20173;-72
2022/12/28 04:28:39;;;;;;;2.20;1.40;;;7.20;99.90;;;;;;5075489;28;20165;-72
2022/12/28 04:31:06;;;;;;;2.10;1.47;;;7.20;99.90;;;;;;5075946;28;20400;-71
2022/12/28 04:33:33;;;;;;;1.83;1.70;;;7.20;99.90;;;;;;5075642;28;20515;-71
2022/12/28 04:36:07;;;;;;;2.60;1.40;;;7.30;99.90;;;;;;5076195;28;20410;-71
2022/12/28 04:38:33;;;;;;;1.37;1.20;;;7.10;99.90;;;;;;5075709;28;20922;-71
2022/12/28 04:40:59;;;;;;;1.40;1.30;;;7.20;99.90;;;;;;5074528;28;20781;-71
2022/12/28 04:43:24;;;;;;;1.60;1.33;;;7.20;99.90;;;;;;5075448;28;20456;-71
2022/12/28 04:45:58;;;;;;;1.23;1.13;;;7.10;99.90;;;;;;5075723;28;20538;-71
2022/12/28 04:48:25;;;;;;;1.57;1.37;;;7.20;99.90;;;;;;5075413;28;20180;-71
2022/12/28 04:50:52;;;;;;;2.50;1.43;;;7.20;99.90;;;;;;5075651;28;21026;-71
2022/12/28 04:53:17;;;;;;;1.43;1.20;;;7.20;99.90;;;;;;5075404;28;20405;-72
2022/12/28 04:55:43;;;;;;;1.60;1.50;;;7.30;99.90;;;;;;5075828;28;20754;-71
2022/12/28 04:58:08;;;;;;;2.00;1.47;;;7.30;99.90;;;;;;5074508;28;20673;-71
2022/12/28 05:00:34;;;;;;;1.83;1.50;;;7.40;99.90;;;;;;5075316;28;20638;-71
2022/12/28 05:03:00;;;;;;;2.23;1.77;;;7.40;99.90;;;;;;5074803;28;20218;-71
2022/12/28 05:05:27;;;;;;;1.87;1.43;;;7.40;99.90;;;;;;5073874;28;20171;-71
2022/12/28 05:07:53;;;;;;;1.73;1.33;;;7.30;99.90;;;;;;5075652;28;20427;-71
2022/12/28 05:10:18;;;;;;;2.70;1.30;;;7.30;99.90;;;;;;5075338;28;20436;-71
2022/12/28 05:12:44;;;;;;;1.60;1.40;;;7.30;99.90;;;;;;5073572;28;20718;-71
2022/12/28 05:15:10;;;;;;;1.03;0.93;;;7.40;99.90;;;;;;5073789;28;20232;-71
2022/12/28 05:17:35;;;;;;;2.80;1.20;;;7.40;99.90;;;;;;5073654;28;20175;-71
2022/12/28 05:20:02;;;;;;;3.10;1.77;;;7.30;99.90;;;;;;5074990;28;20174;-71
2022/12/28 05:22:28;;;;;;;3.00;1.20;;;7.30;99.90;;;;;;5075235;28;20157;-71
2022/12/28 05:24:54;;;;;;;3.17;1.40;;;7.30;99.90;;;;;;5074921;28;20476;-71
2022/12/28 05:27:19;;;;;;;1.40;1.20;;;7.30;99.90;;;;;;5074621;28;20170;-72
2022/12/28 05:29:45;;;;;;;1.40;1.10;;;7.30;99.90;;;;;;5060614;28;20548;-72
2022/12/28 05:32:10;;;;;;;2.13;1.40;;;7.40;99.90;;;;;;5054474;28;20651;-71
2022/12/28 05:34:36;;;;;;;1.73;1.20;;;7.30;99.90;;;;;;5058749;28;20724;-71
2022/12/28 05:37:02;;;;;;;1.70;1.33;;;7.30;99.90;;;;;;5074059;28;20175;-72
2022/12/28 05:39:27;;;;;;;5.27;1.40;;;7.40;99.90;;;;;;5074703;28;20169;-72
2022/12/28 05:41:53;;;;;;;1.40;1.00;;;7.40;99.90;;;;;;5074229;28;20729;-73
2022/12/28 05:44:18;;;;;;;3.57;1.60;;;7.30;99.90;;;;;;5073762;28;20242;-71
2022/12/28 05:46:45;;;;;;;5.13;1.90;;;7.30;99.90;;;;;;5074940;28;20533;-72
2022/12/28 05:49:11;;;;;;;2.03;1.30;;;7.40;99.90;;;;;;5074724;28;20499;-72
2022/12/28 05:51:36;;;;;;;1.60;1.47;;;7.20;99.90;;;;;;5074596;28;20409;-71
2022/12/28 05:54:05;;;;;;;1.57;1.10;;;7.20;99.90;;;;;;5074106;28;20318;-71
2022/12/28 05:56:31;;;;;;;7.10;2.10;;;7.30;99.90;;;;;;5074196;28;20184;-71
2022/12/28 05:58:59;;;;;;;3.07;1.43;;;7.40;99.90;;;;;;5074896;28;20403;-71
2022/12/28 06:01:27;;;;;;;4.60;1.53;;;7.30;99.90;;;;;;5072764;28;20424;-72
2022/12/28 06:04:02;;;;;;;2.40;1.30;;;7.30;99.90;;;;;;5074184;28;20450;-71
2022/12/28 06:06:29;;;;;;;4.10;1.53;;;7.30;99.90;;;;;;5074033;28;20437;-71
2022/12/28 06:08:55;;;;;;;3.10;1.60;;;7.30;99.90;;;;;;5072535;28;20456;-71
2022/12/28 06:11:23;;;;;;;2.47;1.50;;;7.20;99.90;;;;;;5073843;28;20902;-71
2022/12/28 06:13:49;;;;;;;3.50;1.77;;;7.30;99.90;;;;;;5072842;28;20257;-71
2022/12/28 06:16:24;;;;;;;4.37;1.73;;;7.50;99.90;;;;;;5073735;28;20783;-72
2022/12/28 06:18:51;;;;;;;2.03;1.30;;;7.50;99.90;;;;;;5074215;28;20439;-72
2022/12/28 06:21:20;;;;;;;2.53;1.30;;;7.60;99.90;;;;;;5073888;28;20429;-72
2022/12/28 06:23:46;;;;;;;2.03;1.50;;;7.50;99.90;;;;;;5073907;28;20442;-72
2022/12/28 06:26:15;;;;;;;3.23;1.53;;;7.60;99.90;;;;;;5073693;28;20425;-71
2022/12/28 06:28:42;;;;;;;2.67;1.47;;;7.70;99.90;;;;;;5073699;28;20463;-72
2022/12/28 06:31:10;;;;;;;3.67;1.50;;;7.70;99.90;;;;;;5073461;28;20907;-71
2022/12/28 06:33:36;;;;;;;3.13;1.17;;;7.60;99.90;;;;;;5073930;28;20426;-72
2022/12/28 06:36:02;;;;;;;1.90;1.40;;;7.60;99.90;;;;;;5072225;28;20426;-72
2022/12/28 06:38:31;;;;;;;4.43;1.53;;;7.60;99.90;;;;;;5074111;28;20198;-71
2022/12/28 06:41:04;;;;;;;3.00;1.50;;;7.60;99.90;;;;;;5073684;28;20406;-71
2022/12/28 06:43:34;;;;;;;3.73;1.50;;;7.70;99.90;;;;;;5073136;28;20446;-72
2022/12/28 06:46:01;;;;;;;1.93;1.20;;;7.70;99.90;;;;;;5073267;28;20394;-72
2022/12/28 06:48:28;;;;;;;1.60;1.30;;;7.80;99.90;;;;;;5072469;28;20407;-72
2022/12/28 06:50:58;;;;;;;2.80;1.97;;;7.90;99.90;;;;;;5073398;28;20781;-71
2022/12/28 06:53:26;;;;;;;4.93;2.03;;;7.80;99.90;;;;;;5073267;28;20459;-72
2022/12/28 06:55:56;;;;;;;2.80;1.43;;;7.70;99.90;;;;;;5073510;28;20395;-71
2022/12/28 06:58:23;;;;;;;1.73;1.47;;;7.50;99.90;;;;;;5073590;28;20401;-72
2022/12/28 07:00:48;;;;;;;2.50;1.33;;;7.80;99.90;;;;;;5071305;28;20411;-71
2022/12/28 07:03:14;;;;;;;2.17;1.20;;;7.80;99.90;;;;;;5073234;28;20972;-71
2022/12/28 07:05:40;;;;;;;1.40;1.20;;;7.60;99.90;;;;;;5073060;28;20173;-72
2022/12/28 07:08:05;;;;;;;2.93;1.67;;;7.80;99.90;;;;;;5073291;28;20167;-72
2022/12/28 07:10:32;;;;;;;6.23;1.23;;;7.70;99.90;;;;;;5072891;28;20179;-71
2022/12/28 07:12:58;;;;;;;1.30;1.20;;;7.70;99.90;;;;;;5072868;28;20168;-72
2022/12/28 07:15:23;;;;;;;1.43;1.33;;;7.60;99.90;;;;;;5071579;28;20991;-71
2022/12/28 07:17:49;;;;;;;1.57;1.43;;;7.60;99.90;;;;;;5072619;28;20179;-71
2022/12/28 07:20:14;;;;;;;2.13;1.43;;;7.50;99.90;;;;;;5058102;28;20227;-71
2022/12/28 07:22:40;;;;;;;3.27;1.50;;;7.60;99.90;;;;;;5052721;28;20181;-71
2022/12/28 07:25:06;;;;;;;1.50;1.30;;;7.60;99.90;;;;;;5052709;28;20567;-71
2022/12/28 07:27:36;;;;;;;2.60;1.50;;;7.60;99.90;;;;;;5052737;28;20171;-71
2022/12/28 07:30:03;;;;;;;2.77;1.40;;;7.60;99.90;;;;;;5050939;28;20898;-71
2022/12/28 07:32:28;;;;;;;2.07;1.30;;;7.60;99.90;;;;;;5060326;28;20766;-71
2022/12/28 07:34:54;;;;;;;1.60;1.00;;;7.50;99.90;;;;;;5072575;28;20419;-72
2022/12/28 07:37:19;;;;;;;1.53;1.43;;;7.50;99.90;;;;;;5072524;28;20180;-71
2022/12/28 07:39:45;;;;;;;1.63;1.23;;;7.50;99.90;;;;;;5072451;28;20172;-71
2022/12/28 07:42:11;;;;;;;2.10;1.40;;;7.50;99.90;;;;;;5072356;28;20220;-72
2022/12/28 07:44:40;;;;;;;1.30;1.20;;;7.40;99.90;;;;;;5071981;28;20209;-72
2022/12/28 07:47:06;;;;;;;2.03;1.23;;;7.50;99.90;;;;;;5071445;28;20214;-72
2022/12/28 07:49:32;;;;;;;2.03;1.50;;;7.40;99.90;;;;;;5072429;28;20415;-71
2022/12/28 07:51:58;;;;;;;4.20;1.23;;;7.50;99.90;;;;;;5072050;28;20474;-72
2022/12/28 07:54:24;;;;;;;3.30;1.97;;;7.40;99.90;;;;;;5070445;28;20901;-72
2022/12/28 07:56:49;;;;;;;2.67;1.80;;;7.40;99.90;;;;;;5071850;28;20447;-71
2022/12/28 07:59:15;;;;;;;2.40;1.93;;;7.30;99.90;;;;;;5071386;28;20298;-72
2022/12/28 08:01:40;;;;;;;2.40;1.70;;;7.50;99.90;;;;;;5076192;28;20168;-71
2022/12/28 08:04:10;;;;;;;2.50;1.57;;;7.50;99.90;;;;;;5075899;28;20257;-71
2022/12/28 08:06:39;;;;;;;1.50;1.40;;;7.50;99.90;;;;;;5076014;28;20172;-71
2022/12/28 08:09:06;;;;;;;2.00;1.80;;;7.40;99.90;;;;;;5075934;28;20547;-71
2022/12/28 08:11:35;;;;;;;2.60;1.67;;;7.60;99.90;;;;;;5075948;28;20537;-72
2022/12/28 08:14:01;;;;;;;3.00;1.90;;;7.60;99.90;;;;;;5075032;28;20466;-71
2022/12/28 08:16:32;;;;;;;2.00;1.60;;;7.60;99.90;;;;;;5075761;28;20872;-71
2022/12/28 08:18:57;;;;;;;2.20;1.87;;;7.60;99.90;;;;;;5076356;28;20856;-72
2022/12/28 08:21:29;;;;;;;4.10;2.00;;;7.80;99.90;;;;;;5075906;28;20418;-71
2022/12/28 08:23:55;;;;;;;3.30;1.40;;;7.80;99.90;;;;;;5075764;28;20556;-71
2022/12/28 08:26:23;;;;;;;4.33;2.20;;;7.80;99.90;;;;;;5075625;28;20452;-72
2022/12/28 08:28:51;;;;;;;3.00;2.53;;;8.00;99.90;;;;;;5075762;28;20192;-71
2022/12/28 08:31:26;;;;;;;2.30;2.10;;;8.00;99.90;;;;;;5075761;28;20990;-71
2022/12/28 08:33:53;;;;;;;4.37;2.70;;;7.70;99.90;;;;;;5075578;28;20924;-71
2022/12/28 08:36:18;;;;;;;2.53;2.10;;;7.80;99.90;;;;;;5075311;28;20411;-71
2022/12/28 08:38:45;;;;;;;3.33;2.70;;;7.90;99.90;;;;;;5075853;28;20417;-72
2022/12/28 08:41:17;;;;;;;4.77;3.10;;;8.10;99.90;;;;;;5075612;28;20222;-71
2022/12/28 08:43:43;;;;;;;4.80;2.37;;;8.10;99.90;;;;;;5075173;28;20457;-71
2022/12/28 08:46:15;;;;;;;3.17;2.10;;;8.10;99.90;;;;;;5074856;28;20485;-71
2022/12/28 08:48:41;;;;;;;2.90;2.10;;;8.10;99.90;;;;;;5075507;28;20482;-72
2022/12/28 08:51:09;;;;;;;3.60;2.77;;;8.00;99.90;;;;;;5075307;28;20920;-71
2022/12/28 08:53:36;;;;;;;2.40;2.20;;;8.10;99.90;;;;;;5074877;28;20450;-71
2022/12/28 08:56:09;;;;;;;3.40;2.60;;;8.10;99.90;;;;;;5075200;28;20477;-71
2022/12/28 08:58:35;;;;;;;3.00;1.97;;;8.20;99.90;;;;;;5073126;28;20435;-72
2022/12/28 09:01:10;;;;;;;4.57;3.10;;;8.10;99.90;;;;;;5090421;28;20422;-72
2022/12/28 09:03:40;;;;;;;2.50;2.30;;;8.20;99.90;;;;;;5075010;28;20507;-72
2022/12/28 09:06:09;;;;;;;4.50;2.80;;;8.10;99.90;;;;;;5075367;28;20494;-72
2022/12/28 09:08:35;;;;;;;3.10;2.90;;;8.20;99.90;;;;;;5073778;28;20418;-72
2022/12/28 09:11:03;;;;;;;4.80;3.30;;;8.10;99.90;;;;;;5074756;28;20415;-72
2022/12/28 09:13:28;;;;;;;5.30;3.50;;;8.20;99.90;;;;;;5073326;28;20805;-72
2022/12/28 09:16:03;;;;;;;3.40;3.03;;;8.20;99.90;;;;;;5074248;28;20426;-72
2022/12/28 09:18:29;;;;;;;3.57;3.10;;;8.30;99.90;;;;;;5076612;28;20180;-72
2022/12/28 09:20:55;;;;;;;3.90;3.33;;;8.50;99.90;;;;;;5075806;28;20438;-72
2022/12/28 09:23:20;;;;;;;3.40;2.87;;;8.50;99.90;;;;;;5059622;28;20463;-72
2022/12/28 09:25:46;;;;;;;4.43;2.77;;;8.60;99.90;;;;;;5055213;28;20322;-72
2022/12/28 09:28:12;;;;;;;4.87;3.13;;;8.60;99.90;;;;;;5054912;28;20570;-72
2022/12/28 09:30:37;;;;;;;3.53;2.67;;;8.70;99.90;;;;;;5054438;28;20170;-73
2022/12/28 09:35:47;;;;;;;3.10;2.80;;;8.80;99.90;;;;;;5054693;28;20686;-71
2022/12/28 09:38:12;;;;;;;2.80;2.50;;;8.80;99.90;;;;;;5054545;28;20416;-71
2022/12/28 09:40:38;;;;;;;6.40;3.00;;;8.90;99.90;;;;;;5054503;28;20173;-71
2022/12/28 09:43:04;;;;;;;5.77;3.10;;;8.80;99.90;;;;;;5067647;28;20570;-72
2022/12/28 09:45:31;;;;;;;4.10;2.73;;;8.80;99.90;;;;;;5073804;28;20181;-71
2022/12/28 09:48:21;;;;;;;3.47;3.13;;;8.80;99.90;;;;;;5074252;28;20407;-72
2022/12/28 09:50:48;;;;;;;4.70;3.10;;;8.60;99.90;;;;;;5074706;28;20506;-71
2022/12/28 09:53:33;;;;;;;3.97;3.50;;;8.90;99.90;;;;;;5073887;28;20905;-71
2022/12/28 09:56:25;;;;;;;5.67;3.90;;;8.90;99.90;;;;;;5080513;22;20969;-69
2022/12/28 09:58:52;;;;;;;5.10;3.50;;;9.00;99.90;;;;;;5033913;28;20398;-70
2022/12/28 10:01:20;;;;;;;5.80;3.47;;;8.80;99.90;;;;;;5035300;28;20404;-70
2022/12/28 10:03:47;;;;;;;4.07;3.67;;;8.90;99.90;;;;;;5034966;28;20479;-69
2022/12/28 10:06:27;;;;;;;4.17;3.77;;;8.90;99.90;;;;;;5035113;28;20773;-70
2022/12/28 10:08:55;;;;;;;3.97;3.57;;;9.00;99.90;;;;;;5035859;28;20772;-68
2022/12/28 10:11:28;;;;;;;3.70;3.27;;;9.20;99.90;;;;;;5034541;28;20444;-70
2022/12/28 10:13:56;;;;;;;5.00;3.87;;;9.10;99.90;;;;;;5034908;28;20417;-70
2022/12/28 10:16:24;;;;;;;5.30;3.63;;;9.40;99.90;;;;;;5052823;28;20432;-70
2022/12/28 10:18:50;;;;;;;5.20;3.80;;;9.50;99.90;;;;;;5053411;28;20919;-70
2022/12/28 10:21:19;;;;;;;5.97;3.70;;;9.60;99.90;;;;;;5054700;28;20457;-70
2022/12/28 10:23:47;;;;;;;4.53;3.60;;;9.70;99.90;;;;;;5053002;28;20468;-69
2022/12/28 10:26:16;;;;;;;3.57;3.27;;;10.00;99.90;;;;;;5054405;28;20450;-70
2022/12/28 10:28:51;;;;;;;3.47;2.50;;;10.00;99.90;;;;;;5052968;28;20416;-70
2022/12/28 10:31:33;;;;;;;2.83;2.40;;;10.10;99.90;;;;;;5053816;28;20397;-69
2022/12/28 10:33:59;;;;;;;2.63;2.07;;;10.50;99.90;;;;;;5052752;28;20421;-70
2022/12/28 10:36:30;;;;;;;2.97;1.93;;;10.80;99.90;;;;;;5054430;28;20455;-70
2022/12/28 10:38:57;;;;;;;2.57;2.10;;;11.00;99.90;;;;;;5053081;28;20423;-69
2022/12/28 10:41:37;;;;;;;3.20;2.13;;;11.10;99.90;;;;;;5052759;28;20409;-68
2022/12/28 10:44:25;;;;;;;1.70;1.40;;;11.40;99.90;;;;;;5054153;28;20434;-69
2022/12/28 10:47:00;;;;;;;2.80;1.90;;;11.50;99.90;;;;;;5054158;28;20401;-68
2022/12/28 10:49:32;;;;;;;2.03;1.40;;;11.80;99.90;;;;;;5053828;28;20902;-71
2022/12/28 10:52:05;;;;;;;2.50;1.40;;;11.40;99.90;;;;;;5053860;28;20758;-67
2022/12/28 10:54:33;;;;;;;2.33;1.37;;;11.90;99.90;;;;;;5053586;28;20851;-69
2022/12/28 10:56:59;;;;;;;1.60;1.23;;;12.20;99.90;;;;;;5054067;28;20384;-70
2022/12/28 10:59:27;;;;;;;1.63;1.33;;;12.30;99.90;;;;;;5053763;28;20397;-69
2022/12/28 11:01:57;;;;;;;2.77;1.30;;;12.30;99.90;;;;;;5052560;28;20510;-69
2022/12/28 11:04:25;;;;;;;2.40;1.10;;;11.90;99.90;;;;;;5054067;28;20457;-68
2022/12/28 11:07:01;;;;;;;1.57;1.20;;;11.90;99.90;;;;;;5053838;28;20419;-68
2022/12/28 11:09:29;;;;;;;1.63;1.17;;;11.90;99.90;;;;;;5052276;28;20405;-70
2022/12/28 11:12:22;;;;;;;3.53;1.00;;;12.40;99.90;;;;;;5053559;28;20476;-70
2022/12/28 11:14:47;;;;;;;3.20;1.23;;;13.00;99.90;;;;;;5051239;28;20441;-71
2022/12/28 11:17:25;;;;;;;2.10;1.20;;;12.70;99.90;;;;;;5052670;28;20407;-70
2022/12/28 11:20:00;;;;;;;2.20;1.40;;;12.70;99.90;;;;;;5052240;28;20179;-71
2022/12/28 11:22:27;;;;;;;3.00;1.20;;;12.60;99.90;;;;;;5052103;28;20422;-71
2022/12/28 11:24:54;;;;;;;3.20;1.43;;;13.10;99.90;;;;;;5051967;28;20456;-69
2022/12/28 11:27:22;;;;;;;1.80;1.00;;;12.80;99.90;;;;;;5053849;28;20784;-71
2022/12/28 11:29:50;;;;;;;1.63;1.00;;;12.40;99.90;;;;;;5053280;28;20798;-70
2022/12/28 11:32:37;;;;;;;2.70;1.30;;;12.10;99.90;;;;;;5053004;28;20418;-70
2022/12/28 11:35:03;;;;;;;1.20;0.90;;;12.20;99.90;;;;;;5052412;28;20826;-70
2022/12/28 11:37:29;;;;;;;1.40;0.90;;;12.00;99.90;;;;;;5051931;28;20448;-70
2022/12/28 11:39:54;;;;;;;1.10;0.97;;;12.40;99.90;;;;;;5053293;28;20408;-70
2022/12/28 11:42:35;;;;;;;2.50;1.10;;;12.60;99.90;;;;;;5052915;28;20246;-70
2022/12/28 11:45:11;;;;;;;1.90;1.10;;;12.30;99.90;;;;;;5052832;28;20242;-70
2022/12/28 11:47:37;;;;;;;2.07;0.90;;;12.40;99.90;;;;;;5052846;28;20827;-70
2022/12/28 11:50:37;;;;;;;2.30;1.17;;;12.30;99.90;;;;;;5051792;28;20447;-71
2022/12/28 11:53:18;;;;;;;1.40;1.03;;;12.50;99.90;;;;;;5053138;28;20600;-70
2022/12/28 11:55:53;;;;;;;1.10;1.00;;;12.40;99.90;;;;;;5052691;28;20442;-71
2022/12/28 11:59:06;;;;;;;2.13;1.20;;;12.10;99.90;;;;;;5052904;28;20925;-69
2022/12/28 12:01:33;;;;;;;2.63;1.03;;;12.30;99.90;;;;;;5052861;28;20410;-71
2022/12/28 12:03:59;;;;;;;1.67;1.27;;;12.40;99.90;;;;;;5053045;28;20818;-70
2022/12/28 12:06:42;;;;;;;2.77;1.27;;;13.20;99.90;;;;;;5052984;28;20407;-71
2022/12/28 12:09:20;;;;;;;1.93;1.10;;;15.00;99.90;;;;;;5053807;28;20165;-71
2022/12/28 12:11:47;;;;;;;2.03;1.10;;;14.50;99.90;;;;;;5053553;28;20430;-71
2022/12/28 12:14:15;;;;;;;1.60;0.90;;;13.90;99.90;;;;;;5051932;28;20473;-71
2022/12/28 12:16:48;;;;;;;1.63;0.83;;;14.40;99.90;;;;;;5052620;28;20421;-70
2022/12/28 12:19:27;;;;;;;1.27;0.80;;;15.80;99.80;;;;;;5053462;28;20411;-70
2022/12/28 12:22:11;;;;;;;1.77;1.10;;;15.90;98.30;;;;;;5053214;28;20944;-71
2022/12/28 12:24:57;;;;;;;2.93;1.17;;;15.40;98.90;;;;;;5053090;28;20453;-71
2022/12/28 12:27:35;;;;;;;1.30;1.00;;;14.50;99.50;;;;;;5051560;28;20988;-71
2022/12/28 12:30:20;;;;;;;1.20;0.97;;;14.80;99.90;;;;;;5052856;28;20385;-71
2022/12/28 12:32:50;;;;;;;1.87;1.07;;;15.60;99.10;;;;;;5052820;28;20396;-70
2022/12/28 12:35:21;;;;;;;2.80;1.10;;;16.00;98.20;;;;;;5052683;28;20441;-71
2022/12/28 12:38:02;;;;;;;4.50;1.67;;;15.80;98.50;;;;;;5052737;28;20420;-71
2022/12/28 12:40:53;;;;;;;1.67;1.30;;;15.00;99.90;;;;;;5052664;28;20412;-71
2022/12/28 12:43:38;;;;;;;1.67;1.13;;;14.60;99.60;;;;;;5052155;28;20458;-70
2022/12/28 12:46:21;;;;;;;1.73;1.03;;;14.10;99.90;;;;;;5053490;28;20416;-71
2022/12/28 12:49:16;;;;;;;1.33;1.20;;;13.90;99.90;;;;;;5056341;28;20384;-70
2022/12/28 12:51:42;;;;;;;2.13;1.10;;;13.30;99.90;;;;;;5056215;28;20395;-71
2022/12/28 12:54:10;;;;;;;1.77;1.30;;;12.90;99.90;;;;;;5056155;28;20413;-70
2022/12/28 12:57:02;;;;;;;2.40;1.10;;;12.80;99.90;;;;;;5054634;28;20170;-70
2022/12/28 12:59:39;;;;;;;2.63;1.03;;;12.50;99.90;;;;;;5055520;28;20526;-70
2022/12/28 13:02:10;;;;;;;1.77;1.20;;;12.60;99.90;;;;;;5056096;28;20397;-70
2022/12/28 13:04:39;;;;;;;1.70;1.00;;;12.50;99.90;;;;;;5056362;28;20533;-70
2022/12/28 13:07:15;;;;;;;1.30;1.13;;;12.70;99.90;;;;;;5056356;28;20415;-70
2022/12/28 13:09:42;;;;;;;1.57;1.00;;;12.80;99.90;;;;;;5055449;28;20405;-70
2022/12/28 13:12:14;;;;;;;4.50;1.37;;;13.00;99.90;;;;;;5056496;28;20851;-70
2022/12/28 13:14:47;;;;;;;2.60;1.10;;;13.00;99.90;;;;;;5055507;28;20424;-70
2022/12/28 13:17:18;;;;;;;2.23;1.20;;;13.10;99.90;;;;;;5056099;28;20399;-70
2022/12/28 13:19:44;;;;;;;1.87;1.00;;;12.80;99.90;;;;;;5056339;28;20385;-70
2022/12/28 13:22:29;;;;;;;2.17;1.33;;;12.60;99.90;;;;;;5055878;28;20466;-70
2022/12/28 13:24:57;;;;;;;2.03;1.17;;;12.20;99.90;;;;;;5055709;28;20248;-69
2022/12/28 13:27:33;;;;;;;3.20;1.80;;;12.40;99.90;;;;;;5054331;28;20459;-69
2022/12/28 13:30:00;;;;;;;1.40;1.30;;;12.30;99.90;;;;;;5055955;28;20742;-69
2022/12/28 13:32:31;;;;;;;2.63;1.60;;;11.80;99.90;;;;;;5055425;28;20540;-69
2022/12/28 13:34:57;;;;;;;1.80;1.27;;;11.90;99.90;;;;;;5054460;28;20464;-69
2022/12/28 13:37:23;;;;;;;5.77;2.10;;;11.90;99.90;;;;;;5055373;28;20531;-69
2022/12/28 13:39:48;;;;;;;2.90;1.40;;;11.80;99.90;;;;;;5055008;28;20934;-69
2022/12/28 13:42:22;;;;;;;1.90;1.37;;;11.70;99.90;;;;;;5054980;28;20663;-69